KGRR/GRR METAR and TAF weather

Enter ICAO airport designator
Station Type Date Time Source
KGRR METAR 2019/02/17 07:53 UTC NOAA

KGRR 170753Z AUTO 08008KT 10SM CLR M09/M12 A3004 RMK AO2 SLP186 T10941117


Station Type Date Time Source
KGRR Decoded METAR 2019/02/17 07:53 UTC NOAA

GERALD R. FORD INTERNATIONAL, MI, United States (KGRR) 42-53N 085-31W 239M
Feb 17, 2019 - 02:53 AM EST / 2019.02.17 0753 UTC
Wind: from the E (080 degrees) at 9 MPH (8 KT):0
Visibility: 10 mile(s):0
Sky conditions: clear
Temperature: 15.1 F (-9.4 C)
Windchill: 3 F (-16 C):1
Dew Point: 10.9 F (-11.7 C)
Relative Humidity: 83%
Pressure (altimeter): 30.04 in. Hg (1017 hPa)
ob: KGRR 170753Z AUTO 08008KT 10SM CLR M09/M12 A3004 RMK AO2 SLP186 T10941117
cycle: 8

Station Type Date Time Source
KGRR TAF 2019/02/17 06:33 UTC NOAA

TAF KGRR 170530Z 1706/1806 10007KT P6SM SKC
FM171100 08006KT P6SM OVC030
FM171700 08010KT 5SM -SN OVC020
FM171900 07010KT 2SM -SN OVC015
FM172000 07010KT 1 1/2SM -SN OVC015


Example: see airport list